sensor_id;sensor_type;location;lat;lon;timestamp;pressure;altitude;pressure_sealevel;temperature;humidity
9822;BME280;4950;46.042;14.472;2024-02-15T00:00:58;98745.94;;;5.78;75.31
9822;BME280;4950;46.042;14.472;2024-02-15T00:03:25;98742.88;;;5.84;75.25
9822;BME280;4950;46.042;14.472;2024-02-15T00:05:53;98741.72;;;5.88;74.99
9822;BME280;4950;46.042;14.472;2024-02-15T00:08:22;98744.31;;;5.77;75.40
9822;BME280;4950;46.042;14.472;2024-02-15T00:10:50;98743.44;;;5.66;75.81
9822;BME280;4950;46.042;14.472;2024-02-15T00:13:16;98749.88;;;5.61;76.31
9822;BME280;4950;46.042;14.472;2024-02-15T00:15:43;98749.13;;;5.70;75.54
9822;BME280;4950;46.042;14.472;2024-02-15T00:18:11;98742.94;;;5.72;75.61
9822;BME280;4950;46.042;14.472;2024-02-15T00:20:38;98748.44;;;5.68;75.27
9822;BME280;4950;46.042;14.472;2024-02-15T00:23:06;98752.31;;;5.62;75.29
9822;BME280;4950;46.042;14.472;2024-02-15T00:25:33;98747.91;;;5.53;76.32
9822;BME280;4950;46.042;14.472;2024-02-15T00:28:00;98747.53;;;5.58;75.84
9822;BME280;4950;46.042;14.472;2024-02-15T00:30:27;98756.66;;;5.50;75.97
9822;BME280;4950;46.042;14.472;2024-02-15T00:32:54;98756.94;;;5.47;76.40
9822;BME280;4950;46.042;14.472;2024-02-15T00:35:20;98760.31;;;5.48;76.70
9822;BME280;4950;46.042;14.472;2024-02-15T00:37:47;98758.91;;;5.44;76.52
9822;BME280;4950;46.042;14.472;2024-02-15T00:40:16;98753.66;;;5.34;76.71
9822;BME280;4950;46.042;14.472;2024-02-15T00:42:43;98757.88;;;5.24;77.64
9822;BME280;4950;46.042;14.472;2024-02-15T00:45:10;98757.41;;;5.30;77.30
9822;BME280;4950;46.042;14.472;2024-02-15T00:47:37;98760.09;;;5.40;76.87
9822;BME280;4950;46.042;14.472;2024-02-15T00:50:06;98747.22;;;5.40;76.66
9822;BME280;4950;46.042;14.472;2024-02-15T00:52:33;98761.84;;;5.39;76.87
9822;BME280;4950;46.042;14.472;2024-02-15T00:55:00;98765.94;;;5.42;76.97
9822;BME280;4950;46.042;14.472;2024-02-15T00:57:28;98756.34;;;5.32;77.22
9822;BME280;4950;46.042;14.472;2024-02-15T00:59:55;98767.94;;;5.38;77.61
9822;BME280;4950;46.042;14.472;2024-02-15T01:02:22;98765.03;;;5.31;77.73
9822;BME280;4950;46.042;14.472;2024-02-15T01:04:49;98769.34;;;5.31;77.74
9822;BME280;4950;46.042;14.472;2024-02-15T01:07:17;98766.31;;;5.37;77.75
9822;BME280;4950;46.042;14.472;2024-02-15T01:09:44;98765.69;;;5.45;77.40
9822;BME280;4950;46.042;14.472;2024-02-15T01:12:11;98764.19;;;5.42;77.05
9822;BME280;4950;46.042;14.472;2024-02-15T01:14:39;98761.38;;;5.45;77.21
9822;BME280;4950;46.042;14.472;2024-02-15T01:17:06;98752.25;;;5.41;77.24
9822;BME280;4950;46.042;14.472;2024-02-15T01:19:33;98756.81;;;5.38;76.99
9822;BME280;4950;46.042;14.472;2024-02-15T01:22:00;98753.19;;;5.40;76.98
9822;BME280;4950;46.042;14.472;2024-02-15T01:24:28;98755.75;;;5.29;77.13
9822;BME280;4950;46.042;14.472;2024-02-15T01:26:55;98760.00;;;5.19;78.41
9822;BME280;4950;46.042;14.472;2024-02-15T01:29:22;98760.69;;;5.09;78.74
9822;BME280;4950;46.042;14.472;2024-02-15T01:31:51;98762.09;;;5.13;78.85
9822;BME280;4950;46.042;14.472;2024-02-15T01:34:17;98758.69;;;5.13;78.80
9822;BME280;4950;46.042;14.472;2024-02-15T01:36:47;98761.06;;;5.27;78.34
9822;BME280;4950;46.042;14.472;2024-02-15T01:39:14;98759.19;;;5.18;78.28
9822;BME280;4950;46.042;14.472;2024-02-15T01:41:46;98755.53;;;5.09;79.16
9822;BME280;4950;46.042;14.472;2024-02-15T01:44:13;98752.84;;;5.11;79.26
9822;BME280;4950;46.042;14.472;2024-02-15T01:46:41;98750.41;;;5.09;79.23
9822;BME280;4950;46.042;14.472;2024-02-15T01:49:10;98751.34;;;5.08;79.42
9822;BME280;4950;46.042;14.472;2024-02-15T01:51:37;98743.75;;;5.18;78.45
9822;BME280;4950;46.042;14.472;2024-02-15T01:54:06;98740.34;;;5.18;78.86
9822;BME280;4950;46.042;14.472;2024-02-15T01:56:34;98739.28;;;5.31;78.57
9822;BME280;4950;46.042;14.472;2024-02-15T01:59:02;98739.03;;;5.34;78.39
9822;BME280;4950;46.042;14.472;2024-02-15T02:01:30;98737.03;;;5.27;79.12
9822;BME280;4950;46.042;14.472;2024-02-15T02:03:58;98740.78;;;5.23;79.08
9822;BME280;4950;46.042;14.472;2024-02-15T02:06:26;98748.53;;;4.89;80.27
9822;BME280;4950;46.042;14.472;2024-02-15T02:08:53;98740.81;;;5.00;79.45
9822;BME280;4950;46.042;14.472;2024-02-15T02:11:21;98732.38;;;5.09;79.20
9822;BME280;4950;46.042;14.472;2024-02-15T02:13:48;98726.91;;;5.03;80.01
9822;BME280;4950;46.042;14.472;2024-02-15T02:16:25;98722.13;;;4.98;80.05
9822;BME280;4950;46.042;14.472;2024-02-15T02:18:53;98730.88;;;4.95;80.51
9822;BME280;4950;46.042;14.472;2024-02-15T02:21:20;98728.41;;;5.05;80.59
9822;BME280;4950;46.042;14.472;2024-02-15T02:23:52;98712.63;;;5.10;80.00
9822;BME280;4950;46.042;14.472;2024-02-15T02:26:21;98711.69;;;5.22;79.51
9822;BME280;4950;46.042;14.472;2024-02-15T02:28:48;98703.03;;;5.12;79.83
9822;BME280;4950;46.042;14.472;2024-02-15T02:31:15;98706.19;;;5.04;80.20
9822;BME280;4950;46.042;14.472;2024-02-15T02:33:47;98704.66;;;5.02;80.67
9822;BME280;4950;46.042;14.472;2024-02-15T02:36:14;98705.97;;;4.96;80.60
9822;BME280;4950;46.042;14.472;2024-02-15T02:38:42;98705.50;;;4.91;80.63
9822;BME280;4950;46.042;14.472;2024-02-15T02:41:10;98705.03;;;4.97;80.46
9822;BME280;4950;46.042;14.472;2024-02-15T02:43:39;98709.69;;;4.92;80.83
9822;BME280;4950;46.042;14.472;2024-02-15T02:46:06;98722.13;;;4.98;80.49
9822;BME280;4950;46.042;14.472;2024-02-15T02:48:32;98721.28;;;5.09;80.28
9822;BME280;4950;46.042;14.472;2024-02-15T02:50:59;98716.50;;;5.04;79.86
9822;BME280;4950;46.042;14.472;2024-02-15T02:53:26;98710.97;;;5.09;80.10
9822;BME280;4950;46.042;14.472;2024-02-15T02:55:53;98705.59;;;5.12;79.95
9822;BME280;4950;46.042;14.472;2024-02-15T02:58:19;98701.50;;;5.09;79.84
9822;BME280;4950;46.042;14.472;2024-02-15T03:00:48;98697.19;;;5.10;79.64
9822;BME280;4950;46.042;14.472;2024-02-15T03:03:14;98698.94;;;5.09;79.82
9822;BME280;4950;46.042;14.472;2024-02-15T03:05:41;98708.53;;;5.07;79.70
9822;BME280;4950;46.042;14.472;2024-02-15T03:08:08;98701.66;;;4.97;80.32
9822;BME280;4950;46.042;14.472;2024-02-15T03:10:35;98706.31;;;4.91;80.62
9822;BME280;4950;46.042;14.472;2024-02-15T03:13:02;98706.19;;;4.93;80.90
9822;BME280;4950;46.042;14.472;2024-02-15T03:15:30;98713.69;;;4.96;80.07
9822;BME280;4950;46.042;14.472;2024-02-15T03:17:59;98720.69;;;4.94;80.34
9822;BME280;4950;46.042;14.472;2024-02-15T03:20:32;98718.38;;;5.02;80.19
9822;BME280;4950;46.042;14.472;2024-02-15T03:23:00;98712.28;;;5.03;80.71
9822;BME280;4950;46.042;14.472;2024-02-15T03:25:28;98716.81;;;5.00;80.37
9822;BME280;4950;46.042;14.472;2024-02-15T03:27:56;98717.63;;;5.11;79.85
9822;BME280;4950;46.042;14.472;2024-02-15T03:30:30;98721.06;;;5.12;79.59
9822;BME280;4950;46.042;14.472;2024-02-15T03:33:01;98723.63;;;5.12;79.22
9822;BME280;4950;46.042;14.472;2024-02-15T03:35:30;98719.75;;;4.95;79.86
9822;BME280;4950;46.042;14.472;2024-02-15T03:37:57;98725.84;;;4.94;79.62
9822;BME280;4950;46.042;14.472;2024-02-15T03:40:24;98727.97;;;4.89;80.09
9822;BME280;4950;46.042;14.472;2024-02-15T03:42:52;98724.22;;;4.93;79.72
9822;BME280;4950;46.042;14.472;2024-02-15T03:45:19;98719.88;;;4.93;79.73
9822;BME280;4950;46.042;14.472;2024-02-15T03:47:46;98717.53;;;5.02;79.50
9822;BME280;4950;46.042;14.472;2024-02-15T03:50:16;98717.53;;;5.02;79.44
9822;BME280;4950;46.042;14.472;2024-02-15T03:52:44;98726.41;;;4.98;79.46
9822;BME280;4950;46.042;14.472;2024-02-15T03:55:11;98725.84;;;4.83;80.12
9822;BME280;4950;46.042;14.472;2024-02-15T03:57:39;98726.56;;;4.85;80.58
9822;BME280;4950;46.042;14.472;2024-02-15T04:00:07;98729.81;;;4.87;80.46
9822;BME280;4950;46.042;14.472;2024-02-15T04:02:36;98727.59;;;4.82;79.69
9822;BME280;4950;46.042;14.472;2024-02-15T04:05:06;98742.09;;;4.83;80.29
9822;BME280;4950;46.042;14.472;2024-02-15T04:07:35;98735.19;;;4.72;80.55
9822;BME280;4950;46.042;14.472;2024-02-15T04:10:04;98732.59;;;4.72;80.57
9822;BME280;4950;46.042;14.472;2024-02-15T04:12:31;98735.88;;;4.74;80.18
9822;BME280;4950;46.042;14.472;2024-02-15T04:14:58;98731.31;;;4.78;80.12
9822;BME280;4950;46.042;14.472;2024-02-15T04:17:31;98739.75;;;4.69;79.91
9822;BME280;4950;46.042;14.472;2024-02-15T04:20:00;98732.59;;;4.72;80.04
9822;BME280;4950;46.042;14.472;2024-02-15T04:22:28;98729.13;;;4.73;79.82
9822;BME280;4950;46.042;14.472;2024-02-15T04:24:58;98725.94;;;4.59;79.73
9822;BME280;4950;46.042;14.472;2024-02-15T04:27:25;98731.91;;;4.59;79.37
9822;BME280;4950;46.042;14.472;2024-02-15T04:29:51;98732.13;;;4.56;79.92
9822;BME280;4950;46.042;14.472;2024-02-15T04:32:18;98725.47;;;4.53;80.58
9822;BME280;4950;46.042;14.472;2024-02-15T04:34:47;98727.19;;;4.53;81.14
9822;BME280;4950;46.042;14.472;2024-02-15T04:37:14;98729.56;;;4.56;81.06
9822;BME280;4950;46.042;14.472;2024-02-15T04:39:42;98727.69;;;4.58;80.47
9822;BME280;4950;46.042;14.472;2024-02-15T04:42:10;98726.63;;;4.61;80.46
9822;BME280;4950;46.042;14.472;2024-02-15T04:44:38;98735.41;;;4.58;80.51
9822;BME280;4950;46.042;14.472;2024-02-15T04:47:05;98739.38;;;4.62;80.12
9822;BME280;4950;46.042;14.472;2024-02-15T04:49:31;98734.59;;;4.58;80.66
9822;BME280;4950;46.042;14.472;2024-02-15T04:51:58;98728.84;;;4.54;80.80
9822;BME280;4950;46.042;14.472;2024-02-15T04:54:27;98715.78;;;4.57;80.59
9822;BME280;4950;46.042;14.472;2024-02-15T04:56:54;98714.81;;;4.47;80.87
9822;BME280;4950;46.042;14.472;2024-02-15T04:59:23;98711.78;;;4.42;80.99
9822;BME280;4950;46.042;14.472;2024-02-15T05:01:51;98708.63;;;4.38;81.10
9822;BME280;4950;46.042;14.472;2024-02-15T05:04:18;98715.09;;;4.55;80.11
9822;BME280;4950;46.042;14.472;2024-02-15T05:06:45;98719.25;;;4.45;80.12
9822;BME280;4950;46.042;14.472;2024-02-15T05:09:11;98714.22;;;4.43;80.63
9822;BME280;4950;46.042;14.472;2024-02-15T05:11:39;98716.34;;;4.49;80.37
9822;BME280;4950;46.042;14.472;2024-02-15T05:14:08;98715.66;;;4.59;79.67
9822;BME280;4950;46.042;14.472;2024-02-15T05:16:37;98716.72;;;4.56;80.09
9822;BME280;4950;46.042;14.472;2024-02-15T05:19:07;98718.94;;;4.49;79.84
9822;BME280;4950;46.042;14.472;2024-02-15T05:21:34;98725.56;;;4.41;80.74
9822;BME280;4950;46.042;14.472;2024-02-15T05:24:01;98727.19;;;4.53;80.22
9822;BME280;4950;46.042;14.472;2024-02-15T05:26:28;98731.22;;;4.57;79.96
9822;BME280;4950;46.042;14.472;2024-02-15T05:28:55;98733.88;;;4.55;79.64
9822;BME280;4950;46.042;14.472;2024-02-15T05:31:21;98741.09;;;4.39;80.60
9822;BME280;4950;46.042;14.472;2024-02-15T05:33:53;98747.63;;;4.43;81.26
9822;BME280;4950;46.042;14.472;2024-02-15T05:36:20;98749.03;;;4.36;81.10
9822;BME280;4950;46.042;14.472;2024-02-15T05:38:51;98750.34;;;4.42;80.77
9822;BME280;4950;46.042;14.472;2024-02-15T05:41:18;98751.78;;;4.22;80.06
9822;BME280;4950;46.042;14.472;2024-02-15T05:43:46;98753.47;;;3.99;82.00
9822;BME280;4950;46.042;14.472;2024-02-15T05:46:14;98752.78;;;4.08;81.98
9822;BME280;4950;46.042;14.472;2024-02-15T05:48:41;98744.38;;;4.06;82.69
9822;BME280;4950;46.042;14.472;2024-02-15T05:51:09;98738.56;;;4.15;82.02
9822;BME280;4950;46.042;14.472;2024-02-15T05:53:36;98745.38;;;4.16;82.61
9822;BME280;4950;46.042;14.472;2024-02-15T05:56:03;98754.34;;;3.86;82.25
9822;BME280;4950;46.042;14.472;2024-02-15T05:58:30;98761.50;;;3.46;83.89
9822;BME280;4950;46.042;14.472;2024-02-15T06:00:57;98758.75;;;3.60;84.50
9822;BME280;4950;46.042;14.472;2024-02-15T06:03:26;98760.91;;;3.66;84.82
9822;BME280;4950;46.042;14.472;2024-02-15T06:05:53;98763.44;;;3.79;84.12
9822;BME280;4950;46.042;14.472;2024-02-15T06:08:24;98767.72;;;3.79;84.20
9822;BME280;4950;46.042;14.472;2024-02-15T06:10:51;98769.47;;;3.78;83.48
9822;BME280;4950;46.042;14.472;2024-02-15T06:13:18;98766.88;;;3.91;84.22
9822;BME280;4950;46.042;14.472;2024-02-15T06:15:45;98767.84;;;4.01;83.15
9822;BME280;4950;46.042;14.472;2024-02-15T06:18:12;98770.03;;;3.94;83.07
9822;BME280;4950;46.042;14.472;2024-02-15T06:20:40;98772.59;;;3.94;83.73
9822;BME280;4950;46.042;14.472;2024-02-15T06:23:08;98782.28;;;3.91;83.56
9822;BME280;4950;46.042;14.472;2024-02-15T06:25:36;98779.16;;;3.99;83.84
9822;BME280;4950;46.042;14.472;2024-02-15T06:28:05;98782.59;;;3.86;83.84
9822;BME280;4950;46.042;14.472;2024-02-15T06:30:39;98789.53;;;3.97;83.61
9822;BME280;4950;46.042;14.472;2024-02-15T06:33:23;98789.66;;;3.95;84.50
9822;BME280;4950;46.042;14.472;2024-02-15T06:36:07;98791.28;;;3.97;84.58
9822;BME280;4950;46.042;14.472;2024-02-15T06:38:51;98792.31;;;4.18;84.05
9822;BME280;4950;46.042;14.472;2024-02-15T06:41:36;98797.31;;;4.20;84.17
9822;BME280;4950;46.042;14.472;2024-02-15T06:44:03;98802.22;;;4.11;84.44
9822;BME280;4950;46.042;14.472;2024-02-15T06:46:30;98796.47;;;4.08;85.08
9822;BME280;4950;46.042;14.472;2024-02-15T06:48:56;98791.16;;;3.98;85.46
9822;BME280;4950;46.042;14.472;2024-02-15T06:51:24;98792.91;;;3.98;85.92
9822;BME280;4950;46.042;14.472;2024-02-15T06:53:50;98788.59;;;3.98;85.94
9822;BME280;4950;46.042;14.472;2024-02-15T06:56:21;98786.44;;;4.05;86.08
9822;BME280;4950;46.042;14.472;2024-02-15T06:58:49;98795.81;;;4.17;85.81
9822;BME280;4950;46.042;14.472;2024-02-15T07:01:16;98811.72;;;4.22;85.63
9822;BME280;4950;46.042;14.472;2024-02-15T07:03:43;98811.56;;;4.12;86.11
9822;BME280;4950;46.042;14.472;2024-02-15T07:06:11;98808.72;;;4.04;86.41
9822;BME280;4950;46.042;14.472;2024-02-15T07:08:39;98817.78;;;4.21;86.28
9822;BME280;4950;46.042;14.472;2024-02-15T07:11:06;98821.47;;;4.30;86.15
9822;BME280;4950;46.042;14.472;2024-02-15T07:13:34;98815.91;;;4.47;85.51
9822;BME280;4950;46.042;14.472;2024-02-15T07:16:06;98810.78;;;4.47;85.04
9822;BME280;4950;46.042;14.472;2024-02-15T07:18:33;98815.31;;;4.44;85.18
9822;BME280;4950;46.042;14.472;2024-02-15T07:21:00;98822.56;;;4.50;85.19
9822;BME280;4950;46.042;14.472;2024-02-15T07:23:29;98823.53;;;4.60;84.76
9822;BME280;4950;46.042;14.472;2024-02-15T07:25:55;98824.16;;;4.75;84.43
9822;BME280;4950;46.042;14.472;2024-02-15T07:28:23;98826.63;;;4.77;83.95
9822;BME280;4950;46.042;14.472;2024-02-15T07:30:52;98831.03;;;4.74;83.83
9822;BME280;4950;46.042;14.472;2024-02-15T07:33:21;98824.72;;;4.67;84.05
9822;BME280;4950;46.042;14.472;2024-02-15T07:35:49;98809.06;;;4.70;84.06
9822;BME280;4950;46.042;14.472;2024-02-15T07:38:16;98806.16;;;4.75;84.21
9822;BME280;4950;46.042;14.472;2024-02-15T07:40:43;98799.38;;;4.85;84.00
9822;BME280;4950;46.042;14.472;2024-02-15T07:43:10;98802.31;;;4.92;83.54
9822;BME280;4950;46.042;14.472;2024-02-15T07:45:36;98811.34;;;4.86;84.40
9822;BME280;4950;46.042;14.472;2024-02-15T07:48:04;98814.34;;;4.80;84.79
9822;BME280;4950;46.042;14.472;2024-02-15T07:50:32;98804.88;;;4.92;84.95
9822;BME280;4950;46.042;14.472;2024-02-15T07:52:59;98809.34;;;5.01;84.68
9822;BME280;4950;46.042;14.472;2024-02-15T07:55:26;98797.88;;;5.05;84.89
9822;BME280;4950;46.042;14.472;2024-02-15T07:57:53;98802.81;;;5.08;84.14
9822;BME280;4950;46.042;14.472;2024-02-15T08:00:21;98810.75;;;5.17;84.35
9822;BME280;4950;46.042;14.472;2024-02-15T08:02:48;98807.97;;;5.20;84.20
9822;BME280;4950;46.042;14.472;2024-02-15T08:05:14;98808.53;;;5.23;84.17
9822;BME280;4950;46.042;14.472;2024-02-15T08:07:44;98804.56;;;5.30;84.11
9822;BME280;4950;46.042;14.472;2024-02-15T08:10:12;98802.22;;;5.39;84.13
9822;BME280;4950;46.042;14.472;2024-02-15T08:12:40;98792.75;;;5.39;83.60
9822;BME280;4950;46.042;14.472;2024-02-15T08:15:09;98786.16;;;5.46;83.47
9822;BME280;4950;46.042;14.472;2024-02-15T08:17:38;98783.47;;;5.48;83.64
9822;BME280;4950;46.042;14.472;2024-02-15T08:20:09;98785.00;;;5.50;82.95
9822;BME280;4950;46.042;14.472;2024-02-15T08:22:36;98776.09;;;5.54;82.82
9822;BME280;4950;46.042;14.472;2024-02-15T08:25:07;98767.44;;;5.56;82.65
9822;BME280;4950;46.042;14.472;2024-02-15T08:27:37;98769.41;;;5.63;82.20
9822;BME280;4950;46.042;14.472;2024-02-15T08:30:07;98775.06;;;5.57;82.67
9822;BME280;4950;46.042;14.472;2024-02-15T08:32:35;98782.41;;;5.62;82.84
9822;BME280;4950;46.042;14.472;2024-02-15T08:35:01;98786.25;;;5.67;82.86
9822;BME280;4950;46.042;14.472;2024-02-15T08:37:30;98786.47;;;5.76;82.95
9822;BME280;4950;46.042;14.472;2024-02-15T08:39:57;98788.44;;;5.83;82.49
9822;BME280;4950;46.042;14.472;2024-02-15T08:42:26;98787.03;;;5.90;82.55
9822;BME280;4950;46.042;14.472;2024-02-15T08:44:53;98785.16;;;5.92;82.36
9822;BME280;4950;46.042;14.472;2024-02-15T08:47:21;98781.19;;;6.00;82.25
9822;BME280;4950;46.042;14.472;2024-02-15T08:49:48;98774.03;;;5.92;81.95
9822;BME280;4950;46.042;14.472;2024-02-15T08:52:15;98771.56;;;5.90;82.66
9822;BME280;4950;46.042;14.472;2024-02-15T08:54:43;98772.63;;;5.99;82.96
9822;BME280;4950;46.042;14.472;2024-02-15T08:57:10;98777.03;;;6.08;82.73
9822;BME280;4950;46.042;14.472;2024-02-15T08:59:39;98780.88;;;6.14;82.59
9822;BME280;4950;46.042;14.472;2024-02-15T09:02:05;98773.16;;;6.14;82.32
9822;BME280;4950;46.042;14.472;2024-02-15T09:04:32;98768.50;;;6.08;81.79
9822;BME280;4950;46.042;14.472;2024-02-15T09:06:59;98766.50;;;6.11;82.74
9822;BME280;4950;46.042;14.472;2024-02-15T09:09:29;98774.53;;;6.18;82.73
9822;BME280;4950;46.042;14.472;2024-02-15T09:11:56;98760.22;;;6.25;82.85
9822;BME280;4950;46.042;14.472;2024-02-15T09:14:23;98761.22;;;6.34;82.62
9822;BME280;4950;46.042;14.472;2024-02-15T09:16:51;98766.56;;;6.42;82.45
9822;BME280;4950;46.042;14.472;2024-02-15T09:19:18;98761.72;;;6.49;82.37
9822;BME280;4950;46.042;14.472;2024-02-15T09:21:45;98759.34;;;6.57;82.48
9822;BME280;4950;46.042;14.472;2024-02-15T09:24:12;98760.97;;;6.58;82.38
9822;BME280;4950;46.042;14.472;2024-02-15T09:26:41;98750.09;;;6.55;81.83
9822;BME280;4950;46.042;14.472;2024-02-15T09:29:08;98740.19;;;6.60;81.74
9822;BME280;4950;46.042;14.472;2024-02-15T09:31:35;98746.94;;;6.72;81.81
9822;BME280;4950;46.042;14.472;2024-02-15T09:34:03;98739.78;;;6.85;81.10
9822;BME280;4950;46.042;14.472;2024-02-15T09:36:34;98736.97;;;6.88;80.63
9822;BME280;4950;46.042;14.472;2024-02-15T09:39:00;98728.81;;;6.93;80.11
9822;BME280;4950;46.042;14.472;2024-02-15T09:41:27;98728.56;;;6.96;80.08
9822;BME280;4950;46.042;14.472;2024-02-15T09:43:54;98729.81;;;7.02;79.48
9822;BME280;4950;46.042;14.472;2024-02-15T09:46:21;98724.13;;;7.08;78.72
9822;BME280;4950;46.042;14.472;2024-02-15T09:48:50;98723.47;;;7.16;77.94
9822;BME280;4950;46.042;14.472;2024-02-15T09:51:25;98718.47;;;7.24;77.65
9822;BME280;4950;46.042;14.472;2024-02-15T09:53:52;98716.22;;;7.40;77.51
9822;BME280;4950;46.042;14.472;2024-02-15T09:56:20;98721.00;;;7.64;77.81
9822;BME280;4950;46.042;14.472;2024-02-15T09:58:49;98733.94;;;7.94;77.53
9822;BME280;4950;46.042;14.472;2024-02-15T10:01:19;98721.38;;;8.18;76.97
9822;BME280;4950;46.042;14.472;2024-02-15T10:03:49;98713.63;;;8.47;75.93
9822;BME280;4950;46.042;14.472;2024-02-15T10:06:16;98711.38;;;8.72;75.09
9822;BME280;4950;46.042;14.472;2024-02-15T10:08:45;98706.56;;;9.15;74.86
9822;BME280;4950;46.042;14.472;2024-02-15T10:11:12;98703.56;;;9.37;71.47
9822;BME280;4950;46.042;14.472;2024-02-15T10:13:40;98703.59;;;9.55;73.20
9822;BME280;4950;46.042;14.472;2024-02-15T10:16:16;98704.03;;;9.68;70.24
9822;BME280;4950;46.042;14.472;2024-02-15T10:18:44;98700.28;;;9.63;67.40
9822;BME280;4950;46.042;14.472;2024-02-15T10:21:23;98697.09;;;9.51;66.96
9822;BME280;4950;46.042;14.472;2024-02-15T10:24:02;98693.25;;;9.55;67.72
9822;BME280;4950;46.042;14.472;2024-02-15T10:26:31;98695.75;;;9.65;67.73
9822;BME280;4950;46.042;14.472;2024-02-15T10:29:08;98678.50;;;9.74;67.25
9822;BME280;4950;46.042;14.472;2024-02-15T10:31:36;98678.88;;;9.79;66.79
9822;BME280;4950;46.042;14.472;2024-02-15T10:34:07;98678.13;;;9.86;65.98
9822;BME280;4950;46.042;14.472;2024-02-15T10:36:34;98665.38;;;9.93;66.52
9822;BME280;4950;46.042;14.472;2024-02-15T10:39:12;98669.00;;;10.00;65.57
9822;BME280;4950;46.042;14.472;2024-02-15T10:41:44;98661.44;;;9.89;65.50
9822;BME280;4950;46.042;14.472;2024-02-15T10:44:17;98667.81;;;9.95;66.08
9822;BME280;4950;46.042;14.472;2024-02-15T10:46:45;98657.78;;;10.00;66.15
9822;BME280;4950;46.042;14.472;2024-02-15T10:49:16;98649.47;;;10.14;65.32
9822;BME280;4950;46.042;14.472;2024-02-15T10:51:44;98641.22;;;10.19;65.16
9822;BME280;4950;46.042;14.472;2024-02-15T10:54:15;98640.13;;;10.21;64.30
9822;BME280;4950;46.042;14.472;2024-02-15T10:56:49;98646.31;;;10.28;65.60
9822;BME280;4950;46.042;14.472;2024-02-15T10:59:24;98649.22;;;10.52;65.51
9822;BME280;4950;46.042;14.472;2024-02-15T11:01:59;98631.97;;;10.69;63.17
9822;BME280;4950;46.042;14.472;2024-02-15T11:04:31;98626.66;;;10.86;63.02
9822;BME280;4950;46.042;14.472;2024-02-15T11:07:03;98625.25;;;11.09;62.68
9822;BME280;4950;46.042;14.472;2024-02-15T11:09:33;98620.78;;;11.35;61.48
9822;BME280;4950;46.042;14.472;2024-02-15T11:12:01;98614.63;;;11.53;60.47
9822;BME280;4950;46.042;14.472;2024-02-15T11:14:32;98603.06;;;11.72;60.07
9822;BME280;4950;46.042;14.472;2024-02-15T11:17:02;98601.78;;;11.84;59.25
9822;BME280;4950;46.042;14.472;2024-02-15T11:19:45;98589.72;;;12.08;58.72
9822;BME280;4950;46.042;14.472;2024-02-15T11:22:13;98589.34;;;12.27;58.04
9822;BME280;4950;46.042;14.472;2024-02-15T11:24:52;98591.22;;;12.50;58.56
9822;BME280;4950;46.042;14.472;2024-02-15T11:27:25;98594.03;;;12.79;55.35
9822;BME280;4950;46.042;14.472;2024-02-15T11:29:54;98577.78;;;13.00;56.22
9822;BME280;4950;46.042;14.472;2024-02-15T11:32:43;98564.94;;;13.22;54.81
9822;BME280;4950;46.042;14.472;2024-02-15T11:35:15;98579.00;;;13.44;54.54
9822;BME280;4950;46.042;14.472;2024-02-15T11:37:50;98565.34;;;13.57;53.52
9822;BME280;4950;46.042;14.472;2024-02-15T11:40:22;98555.50;;;13.67;52.81
9822;BME280;4950;46.042;14.472;2024-02-15T11:42:50;98555.59;;;13.74;52.49
9822;BME280;4950;46.042;14.472;2024-02-15T11:45:18;98562.81;;;13.87;51.80
9822;BME280;4950;46.042;14.472;2024-02-15T11:47:47;98551.75;;;13.99;51.88
9822;BME280;4950;46.042;14.472;2024-02-15T11:50:16;98552.66;;;14.07;51.64
9822;BME280;4950;46.042;14.472;2024-02-15T11:52:43;98546.97;;;14.03;50.83
9822;BME280;4950;46.042;14.472;2024-02-15T11:55:11;98546.63;;;14.06;50.79
9822;BME280;4950;46.042;14.472;2024-02-15T11:57:40;98545.28;;;14.10;50.27
9822;BME280;4950;46.042;14.472;2024-02-15T12:00:23;98534.75;;;14.18;50.47
9822;BME280;4950;46.042;14.472;2024-02-15T12:03:08;98524.47;;;14.32;50.08
9822;BME280;4950;46.042;14.472;2024-02-15T12:05:54;98523.06;;;14.51;49.34
9822;BME280;4950;46.042;14.472;2024-02-15T12:08:38;98516.13;;;14.73;49.13
9822;BME280;4950;46.042;14.472;2024-02-15T12:11:22;98514.50;;;14.93;49.31
9822;BME280;4950;46.042;14.472;2024-02-15T12:14:12;98515.34;;;15.15;49.22
9822;BME280;4950;46.042;14.472;2024-02-15T12:17:05;98515.50;;;15.35;48.19
9822;BME280;4950;46.042;14.472;2024-02-15T12:19:50;98514.84;;;15.55;47.00
9822;BME280;4950;46.042;14.472;2024-02-15T12:22:20;98513.56;;;15.72;47.05
9822;BME280;4950;46.042;14.472;2024-02-15T12:24:57;98512.31;;;15.90;46.87
9822;BME280;4950;46.042;14.472;2024-02-15T12:27:25;98511.00;;;16.14;44.94
9822;BME280;4950;46.042;14.472;2024-02-15T12:29:57;98503.78;;;16.23;44.92
9822;BME280;4950;46.042;14.472;2024-02-15T12:32:27;98495.63;;;16.46;44.36
9822;BME280;4950;46.042;14.472;2024-02-15T12:35:09;98494.25;;;16.56;43.84
9822;BME280;4950;46.042;14.472;2024-02-15T12:37:38;98486.00;;;16.66;43.84
9822;BME280;4950;46.042;14.472;2024-02-15T12:40:17;98489.50;;;16.87;42.89
9822;BME280;4950;46.042;14.472;2024-02-15T12:42:44;98487.84;;;16.72;41.91
9822;BME280;4950;46.042;14.472;2024-02-15T12:45:17;98487.28;;;16.90;42.49
9822;BME280;4950;46.042;14.472;2024-02-15T12:47:46;98479.44;;;17.04;42.07
9822;BME280;4950;46.042;14.472;2024-02-15T12:50:15;98475.63;;;17.13;41.82
9822;BME280;4950;46.042;14.472;2024-02-15T12:52:44;98478.03;;;17.28;42.36
9822;BME280;4950;46.042;14.472;2024-02-15T12:55:14;98476.41;;;17.27;42.26
9822;BME280;4950;46.042;14.472;2024-02-15T12:57:42;98470.34;;;17.26;42.32
9822;BME280;4950;46.042;14.472;2024-02-15T13:00:11;98467.53;;;17.34;41.47
9822;BME280;4950;46.042;14.472;2024-02-15T13:02:44;98459.03;;;17.39;41.56
9822;BME280;4950;46.042;14.472;2024-02-15T13:05:12;98453.78;;;17.39;42.11
9822;BME280;4950;46.042;14.472;2024-02-15T13:07:39;98447.13;;;17.43;41.88
9822;BME280;4950;46.042;14.472;2024-02-15T13:10:06;98441.88;;;17.50;41.67
9822;BME280;4950;46.042;14.472;2024-02-15T13:12:34;98444.06;;;17.53;41.73
9822;BME280;4950;46.042;14.472;2024-02-15T13:15:02;98444.50;;;17.43;41.38
9822;BME280;4950;46.042;14.472;2024-02-15T13:17:30;98435.19;;;17.54;41.03
9822;BME280;4950;46.042;14.472;2024-02-15T13:20:00;98441.88;;;17.43;40.94
9822;BME280;4950;46.042;14.472;2024-02-15T13:22:31;98433.19;;;17.49;41.37
9822;BME280;4950;46.042;14.472;2024-02-15T13:25:00;98436.59;;;17.56;41.59
9822;BME280;4950;46.042;14.472;2024-02-15T13:27:28;98432.34;;;17.62;42.04
9822;BME280;4950;46.042;14.472;2024-02-15T13:29:55;98428.31;;;17.66;41.10